Time;durP1;ratioP1;P1;durP2;ratioP2;P2;SDS_P1;SDS_P2;PMS_P1;PMS_P2;Temp;Humidity;BMP_temperature;BMP_pressure;BME280_temperature;BME280_humidity;BME280_pressure;Samples;Min_cycle;Max_cycle;Signal;HPM_P1;HPM_P2
2022/03/09 00:01:21;;;;;;;12.80;9.43;;;4.30;32.90;;;;;;5097262;28;20459;-42
2022/03/09 00:03:46;;;;;;;10.67;8.97;;;4.20;32.90;;;;;;5096171;28;20181;-42
2022/03/09 00:06:12;;;;;;;10.83;9.70;;;4.20;33.00;;;;;;5097712;28;20172;-44
2022/03/09 00:08:37;;;;;;;12.83;9.97;;;4.10;33.00;;;;;;5096264;28;20228;-44
2022/03/09 00:11:03;;;;;;;10.37;9.27;;;4.00;33.10;;;;;;5097958;28;20177;-44
2022/03/09 00:13:29;;;;;;;9.83;8.53;;;4.00;33.20;;;;;;5098585;28;20180;-44
2022/03/09 00:15:54;;;;;;;11.57;9.53;;;3.90;33.20;;;;;;5097291;28;20564;-43
2022/03/09 00:18:20;;;;;;;10.70;8.40;;;3.90;33.30;;;;;;5098224;28;20181;-44
2022/03/09 00:20:45;;;;;;;10.73;8.97;;;3.80;33.20;;;;;;5097310;28;20470;-44
2022/03/09 00:23:11;;;;;;;9.73;8.63;;;3.80;33.20;;;;;;5096901;28;20238;-44
2022/03/09 00:25:38;;;;;;;9.70;8.70;;;3.80;33.30;;;;;;5097594;28;20531;-43
2022/03/09 00:28:04;;;;;;;9.07;7.97;;;3.70;33.40;;;;;;5096712;28;20502;-44
2022/03/09 00:30:30;;;;;;;9.43;8.13;;;3.70;33.50;;;;;;5098175;28;20901;-44
2022/03/09 00:32:56;;;;;;;13.03;9.97;;;3.70;33.60;;;;;;5096378;28;20180;-44
2022/03/09 00:35:21;;;;;;;12.43;9.50;;;3.60;33.60;;;;;;5097599;28;20169;-44
2022/03/09 00:37:47;;;;;;;12.00;9.47;;;3.60;33.60;;;;;;5096532;28;20180;-44
2022/03/09 00:40:12;;;;;;;13.07;9.33;;;3.50;33.70;;;;;;5098012;28;20509;-44
2022/03/09 00:42:39;;;;;;;11.37;9.20;;;3.50;33.80;;;;;;5096044;28;20184;-44
2022/03/09 00:45:06;;;;;;;12.37;8.73;;;3.40;33.80;;;;;;5096915;28;20183;-44
2022/03/09 00:47:32;;;;;;;12.20;9.77;;;3.40;33.80;;;;;;5096135;28;20565;-44
2022/03/09 00:49:58;;;;;;;11.33;8.77;;;3.40;33.90;;;;;;5097507;28;20781;-44
2022/03/09 00:52:24;;;;;;;11.83;9.10;;;3.40;34.00;;;;;;5094973;28;20423;-43
2022/03/09 00:54:50;;;;;;;11.73;9.00;;;3.40;34.10;;;;;;5095745;28;20176;-43
2022/03/09 00:57:15;;;;;;;13.40;9.87;;;3.30;34.10;;;;;;5096374;28;20192;-45
2022/03/09 00:59:41;;;;;;;9.57;7.80;;;3.30;34.20;;;;;;5097954;28;20173;-44
2022/03/09 01:02:07;;;;;;;11.60;9.60;;;3.20;34.30;;;;;;5096006;28;20682;-42
2022/03/09 01:04:34;;;;;;;10.77;9.10;;;3.10;34.30;;;;;;5097914;28;20267;-43
2022/03/09 01:07:00;;;;;;;10.60;9.20;;;3.10;34.50;;;;;;5095824;28;20330;-44
2022/03/09 01:09:26;;;;;;;9.60;8.00;;;3.00;34.60;;;;;;5097869;28;20639;-44
2022/03/09 01:11:51;;;;;;;11.53;9.80;;;3.00;34.70;;;;;;5096573;28;20862;-43
2022/03/09 01:14:17;;;;;;;11.80;8.73;;;3.00;34.80;;;;;;5097745;28;20553;-44
2022/03/09 01:16:43;;;;;;;17.97;11.00;;;2.90;34.80;;;;;;5095830;28;20578;-44
2022/03/09 01:19:08;;;;;;;12.17;10.40;;;2.90;34.80;;;;;;5097551;28;20209;-44
2022/03/09 01:21:34;;;;;;;11.50;9.70;;;2.90;35.00;;;;;;5099056;28;20429;-44
2022/03/09 01:24:00;;;;;;;15.00;10.23;;;2.80;35.00;;;;;;5101260;28;20497;-44
2022/03/09 01:26:26;;;;;;;13.43;9.67;;;2.80;35.00;;;;;;5099805;28;20235;-44
2022/03/09 01:28:52;;;;;;;12.30;9.73;;;2.80;35.20;;;;;;5101226;28;20904;-44
2022/03/09 01:31:17;;;;;;;11.33;9.00;;;2.80;35.70;;;;;;5100760;28;20272;-44
2022/03/09 01:33:43;;;;;;;11.30;9.03;;;2.70;35.20;;;;;;5100569;28;20454;-44
2022/03/09 01:36:09;;;;;;;12.33;10.73;;;2.70;35.40;;;;;;5099286;28;20219;-44
2022/03/09 01:38:34;;;;;;;13.00;9.40;;;2.60;35.40;;;;;;5100372;28;20177;-44
2022/03/09 01:41:00;;;;;;;10.33;9.20;;;2.60;35.50;;;;;;5099203;28;20184;-44
2022/03/09 01:43:26;;;;;;;12.40;9.30;;;2.60;35.60;;;;;;5099293;28;20213;-44
2022/03/09 01:45:51;;;;;;;10.83;9.50;;;2.60;35.60;;;;;;5099779;28;20173;-44
2022/03/09 01:48:17;;;;;;;10.60;9.40;;;2.50;35.60;;;;;;5099670;28;20309;-42
2022/03/09 01:50:44;;;;;;;11.73;9.70;;;2.50;35.70;;;;;;5099847;28;20169;-43
2022/03/09 01:53:10;;;;;;;13.43;10.40;;;2.50;35.90;;;;;;5080160;28;20191;-43
2022/03/09 01:55:36;;;;;;;13.07;10.30;;;2.40;36.00;;;;;;5100088;28;20495;-44
2022/03/09 01:58:03;;;;;;;11.13;9.43;;;2.40;36.10;;;;;;5098950;28;20430;-45
2022/03/09 02:00:28;;;;;;;13.70;10.40;;;2.40;36.20;;;;;;5098010;28;20494;-44
2022/03/09 02:02:54;;;;;;;11.40;9.67;;;2.30;36.20;;;;;;5079003;28;20789;-44
2022/03/09 02:05:20;;;;;;;14.47;10.00;;;2.30;36.20;;;;;;5080383;28;20184;-44
2022/03/09 02:10:30;;;;;;;11.70;9.57;;;2.40;36.30;;;;;;5080030;28;20582;-44
2022/03/09 02:12:56;;;;;;;13.77;9.40;;;2.30;36.20;;;;;;5078843;28;20411;-44
2022/03/09 02:15:21;;;;;;;12.27;9.33;;;2.20;36.30;;;;;;5080538;28;20884;-44
2022/03/09 02:17:47;;;;;;;12.60;9.10;;;2.20;36.50;;;;;;5078198;28;20435;-45
2022/03/09 02:20:13;;;;;;;12.37;9.90;;;2.20;36.60;;;;;;5079830;28;20520;-44
2022/03/09 02:22:40;;;;;;;14.13;9.53;;;2.20;36.70;;;;;;5077658;28;20208;-44
2022/03/09 02:25:12;;;;;;;10.53;9.47;;;2.20;37.10;;;;;;5079993;28;20761;-44
2022/03/09 02:27:38;;;;;;;11.17;8.50;;;2.20;36.70;;;;;;5079399;28;20515;-44
2022/03/09 02:30:04;;;;;;;10.43;7.93;;;2.10;36.60;;;;;;5080084;28;20481;-43
2022/03/09 02:32:30;;;;;;;10.63;9.17;;;2.10;36.60;;;;;;5077621;28;20438;-44
2022/03/09 02:34:56;;;;;;;10.93;9.00;;;2.10;36.60;;;;;;5080057;28;20415;-43
2022/03/09 02:37:22;;;;;;;10.40;9.30;;;2.00;36.70;;;;;;5078000;28;20190;-44
2022/03/09 02:39:48;;;;;;;11.30;8.73;;;1.90;36.70;;;;;;5079591;28;20465;-44
2022/03/09 02:42:14;;;;;;;9.90;8.90;;;1.90;36.90;;;;;;5078270;28;20435;-44
2022/03/09 02:44:40;;;;;;;10.97;9.03;;;1.90;36.90;;;;;;5079892;28;20615;-44
2022/03/09 02:47:06;;;;;;;14.30;10.60;;;1.90;36.90;;;;;;5077900;28;20534;-44
2022/03/09 02:49:31;;;;;;;13.30;9.80;;;1.80;36.90;;;;;;5078944;28;20174;-44
2022/03/09 02:51:57;;;;;;;12.97;10.30;;;1.80;36.90;;;;;;5077438;28;20423;-44
2022/03/09 02:54:23;;;;;;;13.67;9.53;;;1.80;37.00;;;;;;5079702;28;20205;-44
2022/03/09 02:56:48;;;;;;;12.10;9.60;;;1.80;37.10;;;;;;5077864;28;20216;-44
2022/03/09 02:59:14;;;;;;;15.40;10.10;;;1.80;37.10;;;;;;5079608;28;20209;-44
2022/03/09 03:01:40;;;;;;;13.97;9.53;;;1.70;37.20;;;;;;5077595;28;20469;-45
2022/03/09 03:04:05;;;;;;;12.90;9.23;;;1.70;37.20;;;;;;5079566;28;20449;-44
2022/03/09 03:06:31;;;;;;;11.57;9.23;;;1.70;37.30;;;;;;5077769;28;20522;-44
2022/03/09 03:08:57;;;;;;;12.43;9.13;;;1.70;37.40;;;;;;5079333;28;20201;-44
2022/03/09 03:11:23;;;;;;;10.50;9.07;;;1.70;37.40;;;;;;5077719;28;20239;-45
2022/03/09 03:13:51;;;;;;;14.27;9.17;;;1.70;37.40;;;;;;5079053;28;20174;-44
2022/03/09 03:16:17;;;;;;;12.30;9.80;;;1.60;37.40;;;;;;5077692;28;20423;-44
2022/03/09 03:18:43;;;;;;;9.87;8.80;;;1.60;37.50;;;;;;5078851;28;20802;-44
2022/03/09 03:21:08;;;;;;;12.60;8.90;;;1.50;37.50;;;;;;5078005;28;20456;-44
2022/03/09 03:23:34;;;;;;;11.57;9.10;;;1.50;37.60;;;;;;5080269;28;20174;-44
2022/03/09 03:26:02;;;;;;;12.00;9.27;;;1.40;37.60;;;;;;5077194;28;20282;-54
2022/03/09 03:28:28;;;;;;;11.97;9.63;;;1.40;37.70;;;;;;5078718;28;20502;-42
2022/03/09 03:30:53;;;;;;;11.13;8.70;;;1.40;37.60;;;;;;5077275;28;20689;-44
2022/03/09 03:33:20;;;;;;;10.87;9.13;;;1.30;37.60;;;;;;5078778;28;20209;-45
2022/03/09 03:35:47;;;;;;;12.03;9.20;;;1.30;37.80;;;;;;5078340;28;20180;-44
2022/03/09 03:38:13;;;;;;;13.27;10.73;;;1.30;37.90;;;;;;5077017;28;20752;-45
2022/03/09 03:40:39;;;;;;;12.07;9.73;;;1.30;38.00;;;;;;5079061;28;20881;-44
2022/03/09 03:43:06;;;;;;;12.87;10.60;;;1.20;38.10;;;;;;5077149;28;20452;-44
2022/03/09 03:45:31;;;;;;;13.67;9.73;;;1.20;38.10;;;;;;5077859;28;20214;-44
2022/03/09 03:47:57;;;;;;;14.07;10.50;;;1.20;38.10;;;;;;5076693;28;20825;-44
2022/03/09 03:50:23;;;;;;;12.17;9.27;;;1.20;38.10;;;;;;5078609;28;20174;-45
2022/03/09 03:52:49;;;;;;;13.10;10.23;;;1.20;38.10;;;;;;5077135;28;20641;-44
2022/03/09 03:55:15;;;;;;;14.17;9.80;;;1.10;38.10;;;;;;5076978;28;20515;-46
2022/03/09 03:57:41;;;;;;;14.57;11.40;;;1.10;38.20;;;;;;5078655;28;20865;-45
2022/03/09 04:00:08;;;;;;;13.30;10.57;;;1.10;38.30;;;;;;5077626;28;20185;-46
2022/03/09 04:02:34;;;;;;;14.70;11.43;;;1.00;38.40;;;;;;5078894;28;20281;-44
2022/03/09 04:04:59;;;;;;;12.93;11.20;;;1.00;38.60;;;;;;5076905;28;20484;-44
2022/03/09 04:07:26;;;;;;;17.90;11.27;;;1.00;38.70;;;;;;5077754;28;20209;-44
2022/03/09 04:09:51;;;;;;;17.63;11.10;;;0.90;38.80;;;;;;5076357;28;20180;-45
2022/03/09 04:12:17;;;;;;;14.80;11.20;;;0.90;39.30;;;;;;5077784;28;20412;-44
2022/03/09 04:14:43;;;;;;;15.00;10.70;;;0.80;38.90;;;;;;5076290;28;20424;-44
2022/03/09 04:17:08;;;;;;;14.23;10.57;;;0.80;39.10;;;;;;5078044;28;20315;-44
2022/03/09 04:19:34;;;;;;;13.80;10.53;;;0.80;39.20;;;;;;5076159;28;20177;-45
2022/03/09 04:21:59;;;;;;;13.30;9.47;;;0.80;39.30;;;;;;5078025;28;20169;-46
2022/03/09 04:24:25;;;;;;;12.37;10.13;;;0.80;39.30;;;;;;5077936;28;20265;-44
2022/03/09 04:26:51;;;;;;;12.87;10.03;;;0.70;39.30;;;;;;5076242;28;20477;-44
2022/03/09 04:29:16;;;;;;;13.57;10.10;;;0.80;39.50;;;;;;5077528;28;20206;-44
2022/03/09 04:31:42;;;;;;;11.10;9.13;;;0.80;39.40;;;;;;5076472;28;20587;-43
2022/03/09 04:34:08;;;;;;;14.00;10.20;;;0.80;39.40;;;;;;5078234;28;20166;-45
2022/03/09 04:36:34;;;;;;;11.60;9.20;;;0.70;39.50;;;;;;5078562;28;20436;-44
2022/03/09 04:39:00;;;;;;;11.33;9.10;;;0.70;39.50;;;;;;5075899;28;20431;-45
2022/03/09 04:41:25;;;;;;;12.03;9.30;;;0.70;39.60;;;;;;5077523;28;20188;-44
2022/03/09 04:43:51;;;;;;;10.90;8.73;;;0.70;39.60;;;;;;5075766;28;20261;-45
2022/03/09 04:46:17;;;;;;;11.90;9.23;;;0.70;39.50;;;;;;5077474;28;20173;-49
2022/03/09 04:48:43;;;;;;;12.23;8.63;;;0.70;39.50;;;;;;5076194;28;20205;-45
2022/03/09 04:51:09;;;;;;;15.23;8.33;;;0.60;39.50;;;;;;5077845;28;20169;-44
2022/03/09 04:53:35;;;;;;;11.67;8.43;;;0.60;39.60;;;;;;5076666;28;20852;-45
2022/03/09 04:56:00;;;;;;;11.17;8.50;;;0.60;39.60;;;;;;5079530;28;20177;-44
2022/03/09 04:58:29;;;;;;;12.53;9.90;;;0.60;39.50;;;;;;5079819;28;20272;-45
2022/03/09 05:00:54;;;;;;;12.87;8.30;;;0.60;39.50;;;;;;5089137;28;20196;-44
2022/03/09 05:03:21;;;;;;;13.87;9.27;;;0.50;39.50;;;;;;5079151;28;20722;-49
2022/03/09 05:05:47;;;;;;;12.27;9.50;;;0.50;39.60;;;;;;5080853;28;20260;-47
2022/03/09 05:08:13;;;;;;;10.53;8.50;;;0.60;39.60;;;;;;5079679;28;20463;-47
2022/03/09 05:10:38;;;;;;;11.93;8.60;;;0.60;39.50;;;;;;5080556;28;20830;-47
2022/03/09 05:13:05;;;;;;;12.90;8.80;;;0.60;39.50;;;;;;5080310;28;20213;-47
2022/03/09 05:15:31;;;;;;;13.80;9.23;;;0.60;39.40;;;;;;5081637;28;20174;-47
2022/03/09 05:17:56;;;;;;;11.27;8.97;;;0.60;39.30;;;;;;5079078;28;20463;-47
2022/03/09 05:20:22;;;;;;;14.53;9.57;;;0.70;39.10;;;;;;5081887;28;20408;-48
2022/03/09 05:22:48;;;;;;;13.20;10.30;;;0.70;39.00;;;;;;5099128;28;20270;-47
2022/03/09 05:25:15;;;;;;;14.70;11.50;;;0.70;38.90;;;;;;5099353;28;20494;-47
2022/03/09 05:27:41;;;;;;;14.30;10.50;;;0.70;38.70;;;;;;5098152;28;20505;-48
2022/03/09 05:30:09;;;;;;;14.90;10.73;;;0.70;38.70;;;;;;5100091;28;20497;-47
2022/03/09 05:32:38;;;;;;;16.70;11.20;;;0.70;38.70;;;;;;5097996;28;20466;-47
2022/03/09 05:35:05;;;;;;;12.40;9.93;;;0.70;38.70;;;;;;5099710;28;20476;-47
2022/03/09 05:37:41;;;;;;;12.00;9.50;;;0.70;38.70;;;;;;5098285;28;20438;-47
2022/03/09 05:40:08;;;;;;;12.13;10.00;;;0.70;38.70;;;;;;5100265;28;21058;-48
2022/03/09 05:42:34;;;;;;;12.40;10.10;;;0.70;38.70;;;;;;5098787;28;20506;-46
2022/03/09 05:44:59;;;;;;;15.00;10.40;;;0.70;38.80;;;;;;5100224;28;20522;-47
2022/03/09 05:47:25;;;;;;;14.30;10.10;;;0.70;38.80;;;;;;5098644;28;20869;-47
2022/03/09 05:49:51;;;;;;;13.33;9.80;;;0.60;38.90;;;;;;5099238;28;20165;-47
2022/03/09 05:52:17;;;;;;;14.90;10.17;;;0.60;39.10;;;;;;5098738;28;20173;-47
2022/03/09 05:54:45;;;;;;;13.00;9.70;;;0.60;39.20;;;;;;5099871;28;20185;-47
2022/03/09 05:57:12;;;;;;;14.33;9.30;;;0.60;39.30;;;;;;5098292;28;20411;-47
2022/03/09 05:59:37;;;;;;;14.77;10.10;;;0.60;39.30;;;;;;5098479;28;20411;-48
2022/03/09 06:02:03;;;;;;;17.27;12.10;;;0.50;39.30;;;;;;5098035;28;20411;-47
2022/03/09 06:04:29;;;;;;;17.73;11.47;;;0.50;39.40;;;;;;5099168;28;20586;-41
2022/03/09 06:06:57;;;;;;;16.80;12.50;;;0.50;39.60;;;;;;5096950;28;20708;-39
2022/03/09 06:09:22;;;;;;;14.90;12.00;;;0.50;39.60;;;;;;5099399;28;20309;-39
2022/03/09 06:11:48;;;;;;;19.70;13.00;;;0.50;39.50;;;;;;5099515;28;20480;-39
2022/03/09 06:14:13;;;;;;;15.77;12.00;;;0.50;39.60;;;;;;5099073;28;20169;-39
2022/03/09 06:16:39;;;;;;;15.67;12.00;;;0.50;39.60;;;;;;5099387;28;20200;-39
2022/03/09 06:19:05;;;;;;;17.03;11.27;;;0.60;39.60;;;;;;5097446;28;20263;-38
2022/03/09 06:21:30;;;;;;;14.37;10.90;;;0.60;39.60;;;;;;5097966;28;20494;-39
2022/03/09 06:23:56;;;;;;;15.20;11.40;;;0.70;39.50;;;;;;5098011;28;20184;-43
2022/03/09 06:26:21;;;;;;;14.23;10.93;;;0.70;39.50;;;;;;5099138;28;20482;-37
2022/03/09 06:28:47;;;;;;;17.57;12.00;;;0.80;39.60;;;;;;5095054;28;20255;-41
2022/03/09 06:31:13;;;;;;;15.13;11.90;;;0.90;39.60;;;;;;5096392;28;20195;-39
2022/03/09 06:33:38;;;;;;;13.67;11.00;;;1.00;39.70;;;;;;5095245;28;20184;-40
2022/03/09 06:36:06;;;;;;;15.27;11.70;;;1.10;39.70;;;;;;5095566;28;20176;-40
2022/03/09 06:38:33;;;;;;;14.23;10.90;;;1.20;39.70;;;;;;5095517;28;20173;-41
2022/03/09 06:40:58;;;;;;;14.20;11.07;;;1.40;39.70;;;;;;5094883;28;21237;-41
2022/03/09 06:43:24;;;;;;;16.70;11.00;;;1.50;39.60;;;;;;5094118;28;20525;-43
2022/03/09 06:45:49;;;;;;;14.90;10.90;;;1.70;39.60;;;;;;5094879;28;20204;-40
2022/03/09 06:48:15;;;;;;;16.23;11.40;;;1.80;39.60;;;;;;5092036;28;20255;-39
2022/03/09 06:50:41;;;;;;;14.30;11.20;;;2.00;39.60;;;;;;5091366;28;20169;-40
2022/03/09 06:53:06;;;;;;;16.40;11.40;;;2.20;39.50;;;;;;5092367;28;20514;-41
2022/03/09 06:55:32;;;;;;;13.33;10.50;;;2.40;39.50;;;;;;5094753;28;20169;-39
2022/03/09 06:57:57;;;;;;;12.60;11.20;;;2.60;39.40;;;;;;5094607;28;20656;-39
2022/03/09 07:00:23;;;;;;;14.43;10.43;;;2.80;39.30;;;;;;5095052;28;20594;-40
2022/03/09 07:02:49;;;;;;;12.97;10.87;;;3.00;39.10;;;;;;5096061;28;20295;-40
2022/03/09 07:05:15;;;;;;;15.60;11.70;;;3.20;38.90;;;;;;5095468;28;20252;-41
2022/03/09 07:07:41;;;;;;;13.10;11.60;;;3.40;38.60;;;;;;5096669;28;20892;-39
2022/03/09 07:10:11;;;;;;;14.73;11.63;;;3.70;38.50;;;;;;5095980;28;20196;-39
2022/03/09 07:12:38;;;;;;;16.23;13.57;;;3.90;38.30;;;;;;5097929;28;20484;-41
2022/03/09 07:15:04;;;;;;;22.60;15.70;;;4.20;38.10;;;;;;5098188;28;20426;-41
2022/03/09 07:17:29;;;;;;;19.47;15.10;;;4.50;37.90;;;;;;5094786;28;20427;-42
2022/03/09 07:19:55;;;;;;;20.10;16.53;;;4.70;37.60;;;;;;5095528;28;20446;-40
2022/03/09 07:22:21;;;;;;;17.33;14.10;;;5.00;37.20;;;;;;5095047;28;20185;-42
2022/03/09 07:24:46;;;;;;;17.90;13.67;;;5.30;36.80;;;;;;5095936;28;20176;-40
2022/03/09 07:27:12;;;;;;;15.43;13.83;;;5.60;36.40;;;;;;5094275;28;20248;-42
2022/03/09 07:29:37;;;;;;;18.17;13.67;;;5.90;36.00;;;;;;5095694;28;20181;-39
2022/03/09 07:32:03;;;;;;;17.43;12.23;;;6.20;35.50;;;;;;5094481;28;20458;-40
2022/03/09 07:34:29;;;;;;;14.67;12.40;;;6.50;35.00;;;;;;5096265;28;20169;-42
2022/03/09 07:36:58;;;;;;;14.60;11.30;;;6.80;34.40;;;;;;5095577;28;20680;-40
2022/03/09 07:39:26;;;;;;;17.00;12.23;;;7.10;33.90;;;;;;5095533;28;20590;-40
2022/03/09 07:41:52;;;;;;;13.50;11.40;;;7.40;33.50;;;;;;5097483;28;20407;-39
2022/03/09 07:44:17;;;;;;;13.27;11.87;;;7.70;32.90;;;;;;5095987;28;20580;-40
2022/03/09 07:46:43;;;;;;;13.20;11.80;;;8.00;32.30;;;;;;5096691;28;20534;-39
2022/03/09 07:49:09;;;;;;;15.73;12.20;;;8.20;31.50;;;;;;5095765;28;20303;-41
2022/03/09 07:51:34;;;;;;;13.77;12.20;;;8.50;31.30;;;;;;5096653;28;20181;-41
2022/03/09 07:54:00;;;;;;;17.63;14.60;;;8.80;31.00;;;;;;5095622;28;20475;-40
2022/03/09 07:56:26;;;;;;;12.90;11.47;;;9.10;30.70;;;;;;5097354;28;20450;-40
2022/03/09 07:58:51;;;;;;;14.00;12.60;;;9.40;30.50;;;;;;5094922;28;20189;-40
2022/03/09 08:01:17;;;;;;;15.33;13.73;;;9.70;30.20;;;;;;5095399;28;20203;-41
2022/03/09 08:03:44;;;;;;;14.13;12.57;;;10.00;29.50;;;;;;5097903;28;20279;-40
2022/03/09 08:06:09;;;;;;;13.37;11.13;;;10.30;29.40;;;;;;5096094;28;20184;-40
2022/03/09 08:08:35;;;;;;;16.90;13.10;;;10.60;29.20;;;;;;5095591;28;20470;-39
2022/03/09 08:11:01;;;;;;;16.37;12.00;;;10.90;29.00;;;;;;5095997;28;20485;-44
2022/03/09 08:13:27;;;;;;;14.70;13.20;;;11.20;28.80;;;;;;5095098;28;20180;-43
2022/03/09 08:15:52;;;;;;;14.20;12.50;;;11.50;28.60;;;;;;5095810;28;20201;-41
2022/03/09 08:18:18;;;;;;;15.90;12.60;;;11.80;28.30;;;;;;5095330;28;20521;-39
2022/03/09 08:20:44;;;;;;;14.40;13.00;;;12.10;28.20;;;;;;5094146;28;20185;-39
2022/03/09 08:23:10;;;;;;;16.07;13.30;;;12.50;28.20;;;;;;5090549;28;20181;-39
2022/03/09 08:25:36;;;;;;;7.97;7.17;;;12.80;27.90;;;;;;5093802;28;20201;-36
2022/03/09 08:28:01;;;;;;;10.23;7.37;;;13.40;35.50;;;;;;5094715;28;20469;-37
2022/03/09 08:30:27;;;;;;;12.50;10.37;;;14.00;37.60;;;;;;5094743;28;20183;-36
2022/03/09 08:32:53;;;;;;;11.80;10.70;;;14.60;35.00;;;;;;5095585;28;20179;-35
2022/03/09 08:35:20;;;;;;;13.20;11.90;;;14.90;31.40;;;;;;5095661;28;20417;-37
2022/03/09 08:37:45;;;;;;;13.63;12.30;;;15.30;29.40;;;;;;5096622;28;20739;-39
2022/03/09 08:40:12;;;;;;;14.27;12.90;;;15.60;28.00;;;;;;5095778;28;20485;-37
2022/03/09 08:42:38;;;;;;;14.87;13.40;;;15.90;27.10;;;;;;5095936;28;20168;-36
2022/03/09 08:45:05;;;;;;;13.50;11.70;;;16.30;26.50;;;;;;5096614;28;20438;-38
2022/03/09 08:47:30;;;;;;;13.93;12.63;;;16.60;26.00;;;;;;5094728;28;20930;-37
2022/03/09 08:49:57;;;;;;;14.30;13.00;;;16.90;25.40;;;;;;5093912;28;20439;-37
2022/03/09 08:52:23;;;;;;;14.43;13.13;;;17.20;25.10;;;;;;5094947;28;20168;-35
2022/03/09 08:54:53;;;;;;;13.50;12.23;;;17.50;24.70;;;;;;5095739;28;20839;-37
2022/03/09 08:57:19;;;;;;;13.63;12.33;;;17.80;24.50;;;;;;5093753;28;20910;-38
2022/03/09 08:59:45;;;;;;;13.13;11.90;;;18.20;24.30;;;;;;5094034;28;20439;-37
2022/03/09 09:02:10;;;;;;;13.33;12.03;;;18.60;24.20;;;;;;5096496;28;20411;-38
2022/03/09 09:04:36;;;;;;;13.90;12.50;;;18.90;23.90;;;;;;5094912;28;20177;-37
2022/03/09 09:07:02;;;;;;;13.60;12.40;;;19.30;23.70;;;;;;5096816;28;20235;-37
2022/03/09 09:09:28;;;;;;;14.70;13.20;;;19.60;23.60;;;;;;5095245;28;20220;-38
2022/03/09 09:11:56;;;;;;;14.30;12.97;;;19.90;23.30;;;;;;5096531;28;20418;-38
2022/03/09 09:14:22;;;;;;;15.47;13.97;;;20.20;23.20;;;;;;5094127;28;20187;-37
2022/03/09 09:16:48;;;;;;;14.40;13.07;;;20.60;23.20;;;;;;5096005;28;20676;-39
2022/03/09 09:19:14;;;;;;;15.20;13.70;;;20.90;23.40;;;;;;5094777;28;20177;-37
2022/03/09 09:21:39;;;;;;;15.90;14.60;;;21.30;23.20;;;;;;5095540;28;20422;-36
2022/03/09 09:24:05;;;;;;;14.73;13.40;;;21.60;23.00;;;;;;5093594;28;20181;-37
2022/03/09 09:26:31;;;;;;;15.47;14.03;;;21.90;22.90;;;;;;5092016;28;20252;-37
2022/03/09 09:28:57;;;;;;;15.70;14.03;;;22.30;22.80;;;;;;5090870;28;20586;-37
2022/03/09 09:31:22;;;;;;;15.30;13.90;;;22.70;22.70;;;;;;5093534;28;20419;-37
2022/03/09 09:33:48;;;;;;;14.87;13.47;;;23.00;22.30;;;;;;5091675;28;20699;-37
2022/03/09 09:36:13;;;;;;;16.20;14.70;;;23.20;22.00;;;;;;5093098;28;20220;-40
2022/03/09 09:38:39;;;;;;;15.80;14.50;;;23.50;22.10;;;;;;5092807;28;20183;-38
2022/03/09 09:41:08;;;;;;;15.77;14.20;;;24.00;21.70;;;;;;5093820;28;20616;-39
2022/03/09 09:43:34;;;;;;;16.57;15.07;;;24.20;21.30;;;;;;5094785;28;20179;-39
2022/03/09 09:46:00;;;;;;;16.10;14.70;;;24.60;21.20;;;;;;5095678;28;20483;-38
2022/03/09 09:48:25;;;;;;;15.97;14.47;;;24.80;20.90;;;;;;5096807;28;20476;-37
2022/03/09 09:50:52;;;;;;;15.10;13.80;;;24.90;20.90;;;;;;5098000;28;20179;-41
2022/03/09 09:53:18;;;;;;;16.73;15.13;;;25.20;20.80;;;;;;5096723;28;20195;-38
2022/03/09 09:55:43;;;;;;;16.57;15.17;;;25.40;20.70;;;;;;5099184;28;20508;-40
2022/03/09 09:58:10;;;;;;;15.60;14.20;;;25.60;20.60;;;;;;5096944;28;20168;-41
2022/03/09 10:00:36;;;;;;;15.97;14.60;;;26.00;20.50;;;;;;5096897;28;20176;-38
2022/03/09 10:03:02;;;;;;;17.57;15.97;;;26.30;20.40;;;;;;5096217;28;20646;-40
2022/03/09 10:05:28;;;;;;;16.83;15.30;;;26.60;20.10;;;;;;5096822;28;20165;-38
2022/03/09 10:08:06;;;;;;;16.37;14.87;;;26.80;20.10;;;;;;5095945;28;20518;-38
2022/03/09 10:10:35;;;;;;;15.43;14.13;;;27.20;20.10;;;;;;5098158;28;20169;-39
2022/03/09 10:13:16;;;;;;;15.90;14.60;;;27.60;20.10;;;;;;5096615;28;20472;-37
2022/03/09 10:15:42;;;;;;;15.23;13.97;;;27.90;20.00;;;;;;5101445;28;20455;-38
2022/03/09 10:18:16;;;;;;;15.13;13.83;;;28.30;20.00;;;;;;5100283;28;20446;-39
2022/03/09 10:20:42;;;;;;;15.40;14.10;;;28.50;19.80;;;;;;5098518;28;20689;-38
2022/03/09 10:23:08;;;;;;;15.77;14.47;;;28.80;19.40;;;;;;5097583;28;20468;-39
2022/03/09 10:25:34;;;;;;;17.20;15.80;;;29.20;19.50;;;;;;5096358;28;20468;-40
2022/03/09 10:28:06;;;;;;;16.97;15.50;;;29.50;19.40;;;;;;5095197;28;20870;-37
2022/03/09 10:30:35;;;;;;;17.30;15.70;;;29.90;19.50;;;;;;5098470;28;20170;-40
2022/03/09 10:33:05;;;;;;;16.80;15.50;;;30.40;19.50;;;;;;5096144;28;20403;-39
2022/03/09 10:35:31;;;;;;;16.67;15.37;;;30.80;19.50;;;;;;5097168;28;20467;-39
2022/03/09 10:38:08;;;;;;;16.50;15.20;;;31.20;19.50;;;;;;5096841;28;20451;-40
2022/03/09 10:40:51;;;;;;;17.30;15.90;;;31.50;19.20;;;;;;5097827;28;20168;-38
2022/03/09 10:43:22;;;;;;;16.70;15.10;;;32.00;19.10;;;;;;5096793;28;20556;-38
2022/03/09 10:46:03;;;;;;;17.50;15.90;;;32.40;18.90;;;;;;5096305;28;20756;-40
2022/03/09 10:48:55;;;;;;;15.93;14.73;;;32.70;18.80;;;;;;5097679;28;20429;-37
2022/03/09 10:51:47;;;;;;;16.20;15.00;;;33.20;18.70;;;;;;5097856;28;20417;-39
2022/03/09 10:54:22;;;;;;;17.03;15.73;;;33.60;18.50;;;;;;5094346;28;20444;-41
2022/03/09 10:56:48;;;;;;;17.13;15.43;;;34.00;18.30;;;;;;5098360;28;20516;-38
2022/03/09 10:59:14;;;;;;;17.40;15.80;;;34.10;18.20;;;;;;5097487;28;20436;-38
2022/03/09 11:01:41;;;;;;;18.07;15.80;;;34.30;18.10;;;;;;5095655;28;20389;-39
2022/03/09 11:04:17;;;;;;;18.23;16.40;;;34.50;18.00;;;;;;5095918;28;20273;-38
2022/03/09 11:06:49;;;;;;;15.10;14.00;;;34.80;17.90;;;;;;5095615;28;20385;-38
2022/03/09 11:09:16;;;;;;;16.40;15.00;;;35.10;17.60;;;;;;5093776;28;20524;-40
2022/03/09 11:11:44;;;;;;;16.87;15.07;;;35.20;17.40;;;;;;5096872;28;20416;-38
2022/03/09 11:14:12;;;;;;;15.70;14.30;;;35.50;17.30;;;;;;5095832;28;20422;-39
2022/03/09 11:16:37;;;;;;;15.27;13.00;;;35.70;17.10;;;;;;5077463;28;20446;-37
2022/03/09 11:19:03;;;;;;;14.63;13.33;;;35.80;16.80;;;;;;5058150;28;20477;-41
2022/03/09 11:21:29;;;;;;;14.57;13.47;;;36.10;16.60;;;;;;5074445;28;20450;-38
2022/03/09 11:23:55;;;;;;;13.57;12.57;;;36.20;16.50;;;;;;5074670;28;20165;-42
2022/03/09 11:26:25;;;;;;;13.30;12.10;;;36.50;16.50;;;;;;5073446;28;20232;-39
2022/03/09 11:29:00;;;;;;;14.10;13.00;;;36.90;16.40;;;;;;5073571;28;20568;-42
2022/03/09 11:31:42;;;;;;;13.70;12.50;;;37.10;16.20;;;;;;5072806;28;20473;-38
2022/03/09 11:34:32;;;;;;;12.10;11.20;;;37.60;16.20;;;;;;5073229;28;20704;-39
2022/03/09 11:37:08;;;;;;;13.50;12.20;;;38.00;16.10;;;;;;5072470;28;20466;-39
2022/03/09 11:39:35;;;;;;;12.13;11.20;;;38.30;15.90;;;;;;5072736;28;20430;-40
2022/03/09 11:42:19;;;;;;;12.43;11.53;;;38.50;15.90;;;;;;5071247;28;20530;-41
2022/03/09 11:44:46;;;;;;;11.33;10.50;;;38.60;15.90;;;;;;5076135;28;20419;-40
2022/03/09 11:47:12;;;;;;;12.00;11.03;;;38.80;15.90;;;;;;5076726;28;20440;-39
2022/03/09 11:49:45;;;;;;;13.13;12.13;;;38.90;15.80;;;;;;5076170;28;20467;-40
2022/03/09 11:52:19;;;;;;;12.43;11.50;;;39.00;15.80;;;;;;5074734;28;20181;-42
2022/03/09 11:55:08;;;;;;;14.13;12.93;;;39.20;15.80;;;;;;5076263;28;20401;-41
2022/03/09 11:57:48;;;;;;;14.87;13.67;;;39.20;15.80;;;;;;5074401;28;20433;-40
2022/03/09 12:00:15;;;;;;;14.33;13.33;;;39.70;15.70;;;;;;5091916;28;20456;-42
2022/03/09 12:02:41;;;;;;;12.60;11.70;;;39.90;15.80;;;;;;5095686;28;20704;-39
2022/03/09 12:05:08;;;;;;;13.13;12.20;;;39.90;15.90;;;;;;5093300;28;20437;-42
2022/03/09 12:07:38;;;;;;;15.13;13.97;;;40.00;15.70;;;;;;5096318;28;20501;-42
2022/03/09 12:10:11;;;;;;;13.07;12.17;;;40.10;16.10;;;;;;5095144;28;20422;-39
2022/03/09 12:12:39;;;;;;;14.70;13.70;;;40.10;15.60;;;;;;5094069;28;20499;-40
2022/03/09 12:15:16;;;;;;;13.20;12.20;;;40.30;15.70;;;;;;5094544;28;20839;-39
2022/03/09 12:17:43;;;;;;;14.20;13.10;;;40.60;15.80;;;;;;5097208;28;20451;-41
2022/03/09 12:20:24;;;;;;;13.40;12.40;;;40.60;15.80;;;;;;5093671;28;20756;-39
2022/03/09 12:23:01;;;;;;;14.30;13.30;;;40.80;15.90;;;;;;5096253;28;20416;-39
2022/03/09 12:25:43;;;;;;;16.77;14.90;;;41.20;16.00;;;;;;5093798;28;20445;-39
2022/03/09 12:28:24;;;;;;;16.73;15.43;;;41.30;15.90;;;;;;5095364;28;20415;-39
2022/03/09 12:31:02;;;;;;;17.20;16.00;;;41.40;16.00;;;;;;5091876;28;20755;-41
2022/03/09 12:33:31;;;;;;;11.87;10.97;;;41.30;15.90;;;;;;5089982;28;20852;-42
2022/03/09 12:36:12;;;;;;;8.77;8.17;;;41.10;17.80;;;;;;5093682;28;20427;-41
2022/03/09 12:38:48;;;;;;;10.20;9.40;;;40.60;19.70;;;;;;5095887;28;20471;-42
2022/03/09 12:41:26;;;;;;;7.67;7.13;;;40.20;19.90;;;;;;5093416;28;20465;-42